createdAt,value
2022-08-28T00:00:40.427Z,22.46
2022-08-28T00:03:13.529Z,22.47
2022-08-28T00:05:43.810Z,22.52
2022-08-28T00:08:14.220Z,22.50
2022-08-28T00:10:42.774Z,22.54
2022-08-28T00:13:18.795Z,22.56
2022-08-28T00:15:51.144Z,22.46
2022-08-28T00:18:19.811Z,22.48
2022-08-28T00:20:49.415Z,22.48
2022-08-28T00:23:17.804Z,22.44
2022-08-28T00:25:45.506Z,22.50
2022-08-28T00:28:23.966Z,22.52
2022-08-28T00:30:59.240Z,22.49
2022-08-28T00:33:34.319Z,22.47
2022-08-28T00:36:03.522Z,22.49
2022-08-28T00:38:32.575Z,22.47
2022-08-28T00:41:03.933Z,22.49
2022-08-28T00:43:43.802Z,22.48
2022-08-28T00:46:20.802Z,22.46
2022-08-28T00:48:49.984Z,22.49
2022-08-28T00:51:39.245Z,22.53
2022-08-28T00:54:08.470Z,22.54
2022-08-28T00:56:40.031Z,22.57
2022-08-28T00:59:16.069Z,22.59
2022-08-28T01:01:46.011Z,22.65
2022-08-28T01:04:18.904Z,22.70
2022-08-28T01:06:53.634Z,22.69
2022-08-28T01:09:30.928Z,22.68
2022-08-28T01:12:08.403Z,22.70
2022-08-28T01:14:40.556Z,22.71
2022-08-28T01:17:10.110Z,22.69
2022-08-28T01:19:48.439Z,22.64
2022-08-28T01:22:33.032Z,22.60
2022-08-28T01:25:03.893Z,22.57
2022-08-28T01:27:31.168Z,22.55
2022-08-28T01:29:58.498Z,22.52
2022-08-28T01:32:43.148Z,22.48
2022-08-28T01:35:16.443Z,22.51
2022-08-28T01:37:44.626Z,22.50
2022-08-28T01:40:18.309Z,22.47
2022-08-28T01:42:46.306Z,22.38
2022-08-28T01:45:17.910Z,22.37
2022-08-28T01:47:46.839Z,22.35
2022-08-28T01:50:19.199Z,22.34
2022-08-28T01:52:46.654Z,22.36
2022-08-28T01:55:14.530Z,22.38
2022-08-28T01:57:49.703Z,22.36
2022-08-28T02:00:18.552Z,22.38
2022-08-28T02:02:47.623Z,22.36
2022-08-28T02:05:15.307Z,22.35
2022-08-28T02:07:42.591Z,22.31
2022-08-28T02:10:12.053Z,22.28
2022-08-28T02:12:39.582Z,22.26
2022-08-28T02:15:08.617Z,22.26
2022-08-28T02:17:36.132Z,22.25
2022-08-28T02:20:05.759Z,22.23
2022-08-28T02:22:33.495Z,22.15
2022-08-28T02:25:01.093Z,22.02
2022-08-28T02:27:28.445Z,22.02
2022-08-28T02:29:55.822Z,22.04
2022-08-28T02:32:23.427Z,21.99
2022-08-28T02:34:50.672Z,21.96
2022-08-28T02:37:18.207Z,21.95
2022-08-28T02:39:45.796Z,21.93
2022-08-28T02:42:13.265Z,21.95
2022-08-28T02:44:42.686Z,21.96
2022-08-28T02:47:10.207Z,21.96
2022-08-28T02:49:38.013Z,21.95
2022-08-28T02:52:06.908Z,21.94
2022-08-28T02:54:35.644Z,21.98
2022-08-28T02:57:03.085Z,22.02
2022-08-28T02:59:30.381Z,22.02
2022-08-28T03:01:57.813Z,22.03
2022-08-28T03:04:25.079Z,22.04
2022-08-28T03:06:52.504Z,22.05
2022-08-28T03:09:20.571Z,22.03
2022-08-28T03:11:47.965Z,22.03
2022-08-28T03:14:15.229Z,22.04
2022-08-28T03:16:42.728Z,22.05
2022-08-28T03:19:10.139Z,22.06
2022-08-28T03:21:37.574Z,22.08
2022-08-28T03:24:05.124Z,22.08
2022-08-28T03:26:33.221Z,22.08
2022-08-28T03:29:02.995Z,22.11
2022-08-28T03:31:33.888Z,22.06
2022-08-28T03:34:01.150Z,22.06
2022-08-28T03:36:29.991Z,22.05
2022-08-28T03:39:01.281Z,21.95
2022-08-28T03:41:31.333Z,21.82
2022-08-28T03:44:01.043Z,21.80
2022-08-28T03:46:34.964Z,21.85
2022-08-28T03:49:04.442Z,21.80
2022-08-28T03:51:34.378Z,21.72
2022-08-28T03:54:04.163Z,21.68
2022-08-28T03:56:32.361Z,21.68
2022-08-28T03:59:05.306Z,21.66
2022-08-28T04:01:33.712Z,21.63
2022-08-28T04:04:01.127Z,21.49
2022-08-28T04:06:28.385Z,21.47
2022-08-28T04:09:00.239Z,21.43
2022-08-28T04:11:28.586Z,21.45
2022-08-28T04:13:56.798Z,21.46
2022-08-28T04:16:24.634Z,21.29
2022-08-28T04:18:51.955Z,21.37
2022-08-28T04:21:23.753Z,21.43
2022-08-28T04:23:51.878Z,21.43
2022-08-28T04:26:23.911Z,21.36
2022-08-28T04:28:53.851Z,21.40
2022-08-28T04:31:31.819Z,21.30
2022-08-28T04:34:03.057Z,21.34
2022-08-28T04:36:30.709Z,21.39
2022-08-28T04:38:59.375Z,21.45
2022-08-28T04:41:28.543Z,21.46
2022-08-28T04:43:57.536Z,21.50
2022-08-28T04:46:25.976Z,21.45
2022-08-28T04:48:54.001Z,21.50
2022-08-28T04:51:21.302Z,21.50
2022-08-28T04:53:48.631Z,21.48
2022-08-28T04:56:16.315Z,21.67
2022-08-28T04:58:45.595Z,21.67
2022-08-28T05:01:19.012Z,21.77
2022-08-28T05:03:48.492Z,21.70
2022-08-28T05:06:16.920Z,21.80
2022-08-28T05:08:44.319Z,21.98
2022-08-28T05:11:22.093Z,22.00
2022-08-28T05:14:04.523Z,22.01
2022-08-28T05:16:34.807Z,22.12
2022-08-28T05:19:03.665Z,22.18
2022-08-28T05:21:30.897Z,22.33
2022-08-28T05:23:59.302Z,22.41
2022-08-28T05:26:28.361Z,22.52
2022-08-28T05:28:59.715Z,22.60
2022-08-28T05:31:30.225Z,22.76
2022-08-28T05:34:00.141Z,22.81
2022-08-28T05:36:33.163Z,22.93
2022-08-28T05:39:06.021Z,23.09
2022-08-28T05:41:35.770Z,23.29
2022-08-28T05:44:07.894Z,23.45
2022-08-28T05:46:42.575Z,23.66
2022-08-28T05:49:11.155Z,23.91
2022-08-28T05:51:42.399Z,24.07
2022-08-28T05:54:09.955Z,24.22
2022-08-28T05:56:40.664Z,24.41
2022-08-28T05:59:10.372Z,24.57
2022-08-28T06:01:45.575Z,24.67
2022-08-28T06:04:27.457Z,24.83
2022-08-28T06:06:55.286Z,25.07
2022-08-28T06:09:29.993Z,25.23
2022-08-28T06:12:01.894Z,25.32
2022-08-28T06:14:31.373Z,25.48
2022-08-28T06:16:59.747Z,25.57
2022-08-28T06:19:31.038Z,25.54
2022-08-28T06:22:07.355Z,25.58
2022-08-28T06:24:36.410Z,25.64
2022-08-28T06:27:04.066Z,25.68
2022-08-28T06:29:31.468Z,25.99
2022-08-28T06:32:04.501Z,26.49
2022-08-28T06:34:32.243Z,27.38
2022-08-28T06:36:59.955Z,28.31
2022-08-28T06:39:27.334Z,29.33
2022-08-28T06:41:54.853Z,30.08
2022-08-28T06:44:22.992Z,30.86
2022-08-28T06:46:54.720Z,31.72
2022-08-28T06:49:23.481Z,32.67
2022-08-28T06:51:51.795Z,32.52
2022-08-28T06:54:22.953Z,31.51
2022-08-28T06:56:52.856Z,30.95
2022-08-28T06:59:20.399Z,31.94
2022-08-28T07:01:48.045Z,32.86
2022-08-28T07:04:15.901Z,31.53
2022-08-28T07:06:54.219Z,30.87
2022-08-28T07:09:24.362Z,30.09
2022-08-28T07:11:53.104Z,30.55
2022-08-28T07:14:20.897Z,32.25
2022-08-28T07:16:48.414Z,33.46
2022-08-28T07:19:25.307Z,33.78
2022-08-28T07:21:53.332Z,35.38
2022-08-28T07:24:21.068Z,34.52
2022-08-28T07:26:49.547Z,33.90
2022-08-28T07:29:19.276Z,34.75
2022-08-28T07:31:50.758Z,36.21
2022-08-28T07:34:21.301Z,37.40
2022-08-28T07:36:51.969Z,37.65
2022-08-28T07:39:21.010Z,39.32
2022-08-28T07:41:50.535Z,41.05
2022-08-28T07:44:41.071Z,41.47
2022-08-28T07:47:11.565Z,42.67
2022-08-28T07:49:40.293Z,43.08
2022-08-28T07:52:09.811Z,42.83
2022-08-28T07:54:40.590Z,44.41
2022-08-28T07:57:10.391Z,45.42
2022-08-28T07:59:38.731Z,46.16
2022-08-28T08:02:07.221Z,47.00
2022-08-28T08:04:35.406Z,48.47
2022-08-28T08:07:04.739Z,49.50
2022-08-28T08:09:37.383Z,50.94
2022-08-28T08:12:05.782Z,51.52
2022-08-28T08:14:33.287Z,51.78
2022-08-28T08:17:03.230Z,52.26
2022-08-28T08:19:35.659Z,52.91
2022-08-28T08:22:03.453Z,53.77
2022-08-28T08:24:30.785Z,54.74
2022-08-28T08:27:02.153Z,55.20
2022-08-28T08:29:37.267Z,55.47
2022-08-28T08:32:10.981Z,55.68
2022-08-28T08:34:42.444Z,55.56
2022-08-28T08:37:12.813Z,55.88
2022-08-28T08:39:43.251Z,56.83
2022-08-28T08:42:26.089Z,57.50
2022-08-28T08:44:57.709Z,55.14
2022-08-28T08:47:47.548Z,48.74
2022-08-28T08:50:29.849Z,48.77
2022-08-28T08:53:36.537Z,52.35
2022-08-28T08:56:06.337Z,54.37
2022-08-28T08:58:40.857Z,54.86
2022-08-28T09:02:01.767Z,54.04
2022-08-28T09:04:41.602Z,53.95
2022-08-28T09:07:19.967Z,49.67
2022-08-28T09:09:58.509Z,48.52
2022-08-28T09:12:35.198Z,49.72
2022-08-28T09:15:17.735Z,48.98
2022-08-28T09:19:19.396Z,48.02
2022-08-28T09:21:48.903Z,47.31
2022-08-28T09:24:29.968Z,47.81
2022-08-28T09:27:12.350Z,47.76
2022-08-28T09:29:43.469Z,47.41
2022-08-28T09:32:31.260Z,44.89
2022-08-28T09:35:24.399Z,49.22
2022-08-28T09:37:52.598Z,50.91
2022-08-28T09:40:52.671Z,46.78
2022-08-28T09:43:28.336Z,44.83
2022-08-28T09:46:18.638Z,42.45
2022-08-28T09:48:51.086Z,40.65
2022-08-28T09:51:21.298Z,39.26
2022-08-28T09:53:54.963Z,38.15
2022-08-28T09:56:40.019Z,37.74
2022-08-28T09:59:29.751Z,39.94
2022-08-28T10:02:20.002Z,42.69
2022-08-28T10:05:05.536Z,50.26
2022-08-28T10:07:51.484Z,52.63
2022-08-28T10:10:35.994Z,52.17
2022-08-28T10:13:19.260Z,47.04
2022-08-28T10:15:56.936Z,45.55
2022-08-28T10:18:47.247Z,47.71
2022-08-28T10:21:44.377Z,50.13
2022-08-28T10:24:44.317Z,49.45
2022-08-28T10:27:45.579Z,49.82
2022-08-28T10:30:21.799Z,45.75
2022-08-28T10:32:59.306Z,43.98
2022-08-28T10:35:53.230Z,43.47
2022-08-28T10:38:47.265Z,42.98
2022-08-28T10:41:59.371Z,42.23
2022-08-28T10:44:59.631Z,42.70
2022-08-28T10:47:29.782Z,45.40
2022-08-28T10:50:08.359Z,43.70
2022-08-28T10:52:47.856Z,40.91
2022-08-28T10:55:38.863Z,39.03
2022-08-28T10:58:24.009Z,37.94
2022-08-28T11:01:02.428Z,37.07
2022-08-28T11:03:40.538Z,36.60
2022-08-28T11:06:18.797Z,36.14
2022-08-28T11:08:55.089Z,35.30
2022-08-28T11:11:48.751Z,34.77
2022-08-28T11:14:32.349Z,34.39
2022-08-28T11:17:14.327Z,34.17
2022-08-28T11:20:24.948Z,33.95
2022-08-28T11:23:02.063Z,34.05
2022-08-28T11:26:02.106Z,33.83
2022-08-28T11:28:35.933Z,34.42
2022-08-28T11:31:07.664Z,35.18
2022-08-28T11:33:52.914Z,35.88
2022-08-28T11:36:23.247Z,37.56
2022-08-28T11:38:57.170Z,42.08
2022-08-28T11:41:31.326Z,41.02
2022-08-28T11:44:11.264Z,45.12
2022-08-28T11:46:45.304Z,44.60
2022-08-28T11:49:34.066Z,47.28
2022-08-28T11:52:29.787Z,45.06
2022-08-28T11:55:25.488Z,41.25
2022-08-28T11:58:29.427Z,38.87
2022-08-28T12:01:13.034Z,37.42
2022-08-28T12:03:55.086Z,36.58
2022-08-28T12:06:55.115Z,36.05
2022-08-28T12:09:50.323Z,35.15
2022-08-28T12:12:24.883Z,35.04
2022-08-28T12:15:07.953Z,34.95
2022-08-28T12:17:48.598Z,34.80
2022-08-28T12:20:34.973Z,34.34
2022-08-28T12:23:23.826Z,33.92
2022-08-28T12:26:02.992Z,33.69
2022-08-28T12:29:00.409Z,33.42
2022-08-28T12:31:55.093Z,33.12
2022-08-28T12:34:41.397Z,32.44
2022-08-28T12:37:51.240Z,32.07
2022-08-28T12:40:25.664Z,31.63
2022-08-28T12:43:15.142Z,31.09
2022-08-28T12:45:55.672Z,30.62
2022-08-28T12:48:29.563Z,30.18
2022-08-28T12:51:18.575Z,29.81
2022-08-28T12:53:55.475Z,29.54
2022-08-28T12:56:26.250Z,28.86
2022-08-28T12:58:53.694Z,27.24
2022-08-28T13:01:34.194Z,24.90
2022-08-28T13:04:21.974Z,23.85
2022-08-28T13:07:57.149Z,-143.46
2022-08-28T13:11:50.162Z,-143.46
2022-08-28T13:14:59.936Z,23.85
2022-08-28T13:18:53.715Z,-143.46
2022-08-28T13:22:32.807Z,-143.46
2022-08-28T13:25:08.179Z,23.85
2022-08-28T13:27:39.958Z,23.85
2022-08-28T13:30:20.173Z,23.85
2022-08-28T13:33:20.943Z,23.85
2022-08-28T13:35:50.407Z,22.72
2022-08-28T13:38:21.991Z,22.72
2022-08-28T13:40:59.698Z,22.97
2022-08-28T13:43:42.735Z,23.08
2022-08-28T13:46:10.584Z,22.94
2022-08-28T13:48:37.932Z,22.80
2022-08-28T13:51:14.224Z,22.82
2022-08-28T13:53:49.330Z,22.84
2022-08-28T13:56:17.958Z,22.88
2022-08-28T13:58:45.250Z,22.93
2022-08-28T14:01:45.407Z,22.99
2022-08-28T14:04:13.434Z,23.05
2022-08-28T14:06:44.146Z,23.16
2022-08-28T14:09:15.487Z,23.27
2022-08-28T14:11:46.753Z,23.22
2022-08-28T14:14:14.565Z,23.41
2022-08-28T14:16:45.104Z,23.40
2022-08-28T14:19:12.957Z,23.49
2022-08-28T14:21:41.429Z,23.39
2022-08-28T14:24:08.914Z,23.38
2022-08-28T14:26:37.038Z,23.43
2022-08-28T14:29:09.877Z,23.43
2022-08-28T14:31:41.010Z,23.55
2022-08-28T14:34:12.574Z,23.52
2022-08-28T14:36:41.987Z,23.63
2022-08-28T14:39:12.688Z,23.66
2022-08-28T14:41:46.980Z,23.78
2022-08-28T14:44:15.516Z,23.61
2022-08-28T14:46:45.840Z,23.58
2022-08-28T14:49:16.466Z,23.45
2022-08-28T14:51:46.251Z,23.39
2022-08-28T14:54:17.829Z,23.41
2022-08-28T14:56:47.842Z,23.36
2022-08-28T14:59:24.197Z,23.34
2022-08-28T15:01:55.699Z,23.26
2022-08-28T15:04:26.199Z,23.07
2022-08-28T15:07:00.403Z,23.01
2022-08-28T15:09:28.066Z,22.99
2022-08-28T15:11:55.587Z,22.89
2022-08-28T15:14:23.323Z,22.71
2022-08-28T15:16:51.196Z,22.60
2022-08-28T15:19:19.154Z,22.47
2022-08-28T15:21:51.386Z,22.37
2022-08-28T15:24:24.277Z,22.33
2022-08-28T15:26:51.810Z,22.20
2022-08-28T15:29:19.503Z,22.17
2022-08-28T15:31:50.565Z,22.17
2022-08-28T15:34:25.508Z,22.18
2022-08-28T15:36:56.144Z,22.23
2022-08-28T15:39:45.010Z,22.32
2022-08-28T15:42:13.352Z,22.38
2022-08-28T15:44:42.092Z,22.44
2022-08-28T15:47:10.079Z,22.49
2022-08-28T15:49:44.706Z,22.61
2022-08-28T15:52:18.772Z,22.70
2022-08-28T15:54:47.708Z,22.79
2022-08-28T15:57:16.171Z,22.86
2022-08-28T15:59:49.984Z,22.93
2022-08-28T16:02:24.477Z,22.97
2022-08-28T16:04:53.749Z,23.01
2022-08-28T16:07:23.394Z,23.06
2022-08-28T16:09:51.259Z,23.10
2022-08-28T16:12:18.768Z,23.09
2022-08-28T16:14:46.242Z,23.06
2022-08-28T16:17:13.563Z,23.01
2022-08-28T16:19:42.951Z,23.01
2022-08-28T16:22:12.847Z,23.00
2022-08-28T16:24:40.313Z,23.02
2022-08-28T16:27:11.804Z,23.05
2022-08-28T16:29:43.123Z,23.14
2022-08-28T16:32:11.695Z,23.16
2022-08-28T16:34:40.097Z,23.10
2022-08-28T16:37:07.999Z,23.02
2022-08-28T16:39:36.994Z,22.96
2022-08-28T16:42:05.155Z,22.92
2022-08-28T16:44:32.753Z,22.85
2022-08-28T16:47:00.183Z,22.75
2022-08-28T16:49:27.720Z,22.68
2022-08-28T16:51:54.991Z,22.60
2022-08-28T16:54:22.475Z,22.58
2022-08-28T16:56:50.067Z,22.49
2022-08-28T16:59:24.263Z,22.42
2022-08-28T17:01:52.924Z,22.43
2022-08-28T17:04:21.965Z,22.40
2022-08-28T17:06:49.724Z,22.39
2022-08-28T17:09:17.321Z,22.37
2022-08-28T17:11:51.598Z,22.33
2022-08-28T17:14:22.114Z,22.29
2022-08-28T17:16:50.595Z,22.28
2022-08-28T17:19:19.283Z,22.28
2022-08-28T17:22:05.724Z,22.28
2022-08-28T17:24:33.160Z,22.26
2022-08-28T17:27:05.442Z,22.29
2022-08-28T17:29:35.378Z,22.25
2022-08-28T17:32:05.325Z,22.18
2022-08-28T17:34:32.668Z,22.20
2022-08-28T17:37:00.030Z,22.17
2022-08-28T17:39:27.794Z,22.17
2022-08-28T17:41:55.398Z,22.15
2022-08-28T17:44:23.566Z,22.16
2022-08-28T17:47:09.660Z,22.17
2022-08-28T17:49:36.969Z,22.17
2022-08-28T17:52:05.499Z,22.21
2022-08-28T17:54:33.410Z,22.26
2022-08-28T17:57:01.386Z,22.21
2022-08-28T17:59:28.762Z,22.15
2022-08-28T18:01:56.170Z,22.08
2022-08-28T18:04:24.745Z,22.12
2022-08-28T18:06:54.651Z,22.06
2022-08-28T18:09:24.115Z,22.06
2022-08-28T18:11:52.658Z,22.02
2022-08-28T18:14:21.121Z,22.02
2022-08-28T18:16:48.654Z,21.97
2022-08-28T18:19:16.813Z,21.97
2022-08-28T18:21:45.021Z,21.96
2022-08-28T18:24:13.257Z,21.88
2022-08-28T18:26:42.871Z,21.92
2022-08-28T18:29:11.951Z,21.86
2022-08-28T18:31:40.075Z,21.86
2022-08-28T18:34:11.125Z,21.79
2022-08-28T18:36:44.017Z,21.75
2022-08-28T18:39:12.139Z,21.81
2022-08-28T18:41:43.937Z,21.75
2022-08-28T18:44:15.383Z,21.75
2022-08-28T18:46:44.282Z,21.72
2022-08-28T18:49:12.639Z,21.76
2022-08-28T18:51:43.592Z,21.75
2022-08-28T18:54:16.590Z,21.76
2022-08-28T18:56:45.919Z,21.84
2022-08-28T18:59:15.920Z,21.83
2022-08-28T19:01:43.480Z,21.84
2022-08-28T19:04:10.901Z,21.85
2022-08-28T19:06:38.638Z,21.82
2022-08-28T19:09:06.534Z,21.85
2022-08-28T19:11:35.945Z,21.83
2022-08-28T19:14:04.316Z,21.76
2022-08-28T19:16:32.534Z,21.73
2022-08-28T19:19:01.902Z,21.64
2022-08-28T19:21:30.253Z,21.61
2022-08-28T19:23:57.792Z,21.51
2022-08-28T19:26:27.376Z,21.48
2022-08-28T19:28:55.802Z,21.46
2022-08-28T19:31:26.331Z,21.45
2022-08-28T19:33:54.153Z,21.41
2022-08-28T19:36:21.938Z,21.38
2022-08-28T19:38:49.307Z,21.39
2022-08-28T19:41:17.047Z,21.34
2022-08-28T19:43:44.990Z,21.34
2022-08-28T19:46:20.135Z,21.28
2022-08-28T19:48:50.599Z,21.25
2022-08-28T19:51:23.084Z,21.26
2022-08-28T19:53:58.962Z,21.23
2022-08-28T19:56:30.462Z,21.23
2022-08-28T19:59:01.453Z,21.21
2022-08-28T20:01:33.386Z,21.22
2022-08-28T20:04:01.659Z,21.19
2022-08-28T20:06:32.845Z,21.20
2022-08-28T20:09:02.157Z,21.12
2022-08-28T20:11:30.726Z,21.11
2022-08-28T20:14:05.159Z,21.08
2022-08-28T20:16:38.098Z,21.06
2022-08-28T20:19:10.601Z,21.02
2022-08-28T20:21:42.136Z,21.04
2022-08-28T20:24:14.998Z,21.02
2022-08-28T20:26:42.664Z,21.07
2022-08-28T20:29:10.984Z,21.06
2022-08-28T20:31:41.470Z,20.98
2022-08-28T20:34:10.868Z,21.00
2022-08-28T20:36:38.727Z,20.95
2022-08-28T20:39:09.431Z,20.99
2022-08-28T20:41:40.205Z,20.85
2022-08-28T20:44:12.757Z,20.87
2022-08-28T20:46:42.144Z,20.91
2022-08-28T20:49:14.871Z,20.85
2022-08-28T20:51:56.409Z,20.88
2022-08-28T20:54:38.175Z,20.87
2022-08-28T20:57:10.794Z,20.82
2022-08-28T20:59:41.324Z,20.82
2022-08-28T21:02:31.547Z,20.79
2022-08-28T21:04:58.986Z,20.75
2022-08-28T21:07:26.967Z,20.72
2022-08-28T21:10:06.918Z,20.64
2022-08-28T21:12:40.337Z,20.66
2022-08-28T21:15:11.538Z,20.71
2022-08-28T21:17:40.581Z,20.75
2022-08-28T21:20:15.343Z,20.70
2022-08-28T21:22:43.023Z,20.69
2022-08-28T21:25:11.904Z,20.75
2022-08-28T21:27:39.599Z,20.78
2022-08-28T21:30:11.135Z,20.83
2022-08-28T21:32:38.723Z,20.85
2022-08-28T21:35:09.319Z,20.83
2022-08-28T21:37:40.971Z,20.84
2022-08-28T21:40:11.964Z,20.70
2022-08-28T21:42:40.325Z,20.59
2022-08-28T21:45:11.853Z,20.56
2022-08-28T21:47:41.259Z,20.46
2022-08-28T21:50:10.884Z,20.44
2022-08-28T21:52:38.859Z,20.41
2022-08-28T21:55:12.123Z,20.40
2022-08-28T21:57:39.787Z,20.33
2022-08-28T22:00:14.961Z,20.31
2022-08-28T22:02:42.505Z,20.30
2022-08-28T22:05:11.045Z,20.28
2022-08-28T22:07:38.643Z,20.23
2022-08-28T22:10:08.251Z,20.13
2022-08-28T22:12:35.755Z,20.11
2022-08-28T22:15:03.267Z,20.10
2022-08-28T22:17:30.787Z,20.07
2022-08-28T22:19:58.007Z,20.10
2022-08-28T22:22:43.881Z,20.08
2022-08-28T22:25:11.361Z,20.10
2022-08-28T22:27:38.633Z,20.12
2022-08-28T22:30:06.709Z,20.23
2022-08-28T22:32:34.188Z,20.02
2022-08-28T22:35:01.519Z,20.05
2022-08-28T22:37:28.865Z,20.04
2022-08-28T22:39:57.588Z,20.09
2022-08-28T22:42:25.955Z,20.06
2022-08-28T22:44:53.191Z,20.00
2022-08-28T22:47:21.628Z,19.97
2022-08-28T22:49:49.913Z,20.03
2022-08-28T22:52:17.913Z,20.02
2022-08-28T22:54:47.164Z,20.04
2022-08-28T22:57:20.763Z,20.07
2022-08-28T22:59:48.274Z,20.04
2022-08-28T23:02:18.442Z,20.17
2022-08-28T23:04:45.833Z,20.19
2022-08-28T23:07:19.632Z,20.21
2022-08-28T23:09:47.447Z,20.19
2022-08-28T23:12:14.882Z,20.27
2022-08-28T23:14:46.456Z,20.28
2022-08-28T23:17:16.923Z,20.29
2022-08-28T23:19:44.487Z,20.30
2022-08-28T23:22:14.759Z,20.25
2022-08-28T23:24:42.051Z,20.24
2022-08-28T23:27:32.398Z,20.25
2022-08-28T23:29:57.355Z,20.23
2022-08-28T23:32:25.239Z,20.32
2022-08-28T23:34:52.559Z,20.29
2022-08-28T23:37:20.355Z,20.32
2022-08-28T23:39:47.869Z,20.24
2022-08-28T23:42:15.078Z,20.36
2022-08-28T23:44:42.397Z,20.39
2022-08-28T23:47:09.957Z,20.37
2022-08-28T23:49:42.655Z,20.35
2022-08-28T23:52:10.557Z,20.31
2022-08-28T23:54:39.811Z,20.22
2022-08-28T23:57:08.793Z,20.28
2022-08-28T23:59:38.327Z,20.32
